»·PEaware :: N74KW KABQ-KSKX

N74KW :: KABQ-KSKX

FLIGHT INFORMATION

Flight Status: Arrived
Operator: Privately registered:
United States
More flights under this callsign
Pilot: Charles C. (26995)
Aircraft: MCDONNELL-DOUGLAS SKYTRAIN C-47
(DC3)
More flights by this aircraft type
Origin: KABQ Albuquerque Intl Sunport
United States
Destination: KSKX Taos Regl
United States
More flights between these airports :: More routes between these airports
Route: +LARGO3 ABQ V263 SAF V83 DIXAN
File this flight plan on PilotEdge
Remarks:
Altitude:
(Current/Filed)
9,000ft
Speed:
(Current/Filed)
150kts
Departed: 20-Aug-20 08:42 AM
Arrived: 20-Aug-20 09:32 AM
Distance/Time
Traveled:
97nm/0:49
Distance/Time
To Go:
Arrived

Flight Plot

Page will automatically refresh every two minutes.

Flight plan parsing failed; only flown route is shown


Map Options




Map Legend


Flown Route
Filed Route
Departure Airport
Arrival Airport
Navaid (VOR, NDB)
Fix

Horizontal Profiles

Position Reports

Time Latitude Longitude Heading Altitude Ground
Speed
20-Aug-20 08:33 35.047082 -106.614117 309 5317ft 0kts
20-Aug-20 08:34 35.047082 -106.614117 309 5317ft 0kts
20-Aug-20 08:36 35.047082 -106.614117 309 5317ft 0kts
20-Aug-20 08:37 35.047111 -106.614050 139 5317ft 3kts
20-Aug-20 08:38 35.046944 -106.613929 179 5318ft 0kts
20-Aug-20 08:39 35.045681 -106.616060 272 5315ft 12kts
20-Aug-20 08:40 35.045661 -106.616898 259 5315ft 8kts
20-Aug-20 08:41 35.044340 -106.618970 88 5312ft 8kts
20-Aug-20 08:42 35.044242 -106.604469 91 5322ft 111kts
20-Aug-20 08:43 35.049781 -106.564552 33 5991ft 125kts
20-Aug-20 08:44 35.077523 -106.581825 320 6583ft 133kts
20-Aug-20 08:45 35.105820 -106.609889 322 7262ft 133kts
20-Aug-20 08:46 35.118743 -106.622654 322 7630ft 130kts
20-Aug-20 08:47 35.147764 -106.650071 324 8287ft 133kts
20-Aug-20 08:48 35.176257 -106.678924 322 8878ft 137kts
20-Aug-20 08:49 35.210256 -106.709402 327 8759ft 175kts
20-Aug-20 08:49 35.244009 -106.730942 354 9035ft 162kts
20-Aug-20 08:51 35.294913 -106.709185 19 9003ft 170kts
20-Aug-20 08:52 35.339380 -106.690137 18 9029ft 169kts
20-Aug-20 08:52 35.376466 -106.674364 18 9033ft 170kts
20-Aug-20 08:53 35.421310 -106.655275 18 9027ft 171kts
20-Aug-20 08:55 35.473812 -106.633328 17 9032ft 171kts
20-Aug-20 08:55 35.496685 -106.601050 87 9025ft 173kts
20-Aug-20 08:56 35.503160 -106.542302 79 9006ft 173kts
20-Aug-20 08:58 35.512215 -106.474109 79 9014ft 173kts
20-Aug-20 08:58 35.518533 -106.425456 79 9020ft 173kts
20-Aug-20 08:59 35.526067 -106.367061 79 9030ft 174kts
20-Aug-20 09:00 35.533153 -106.311560 83 9709ft 156kts
20-Aug-20 09:01 35.534872 -106.258742 86 10279ft 153kts
20-Aug-20 09:02 35.536396 -106.206414 86 10801ft 153kts
20-Aug-20 09:03 35.537912 -106.153581 86 11046ft 159kts
20-Aug-20 09:04 35.539417 -106.099108 86 11034ft 157kts
20-Aug-20 09:05 35.560831 -106.063109 8 11037ft 157kts
20-Aug-20 09:06 35.606101 -106.055378 6 11037ft 170kts
20-Aug-20 09:07 35.653738 -106.048136 6 11036ft 175kts
20-Aug-20 09:08 35.702237 -106.040903 6 11040ft 176kts
20-Aug-20 09:09 35.750901 -106.033662 6 11056ft 176kts
20-Aug-20 09:10 35.799645 -106.026405 6 11070ft 176kts
20-Aug-20 09:11 35.848336 -106.019144 6 11083ft 177kts
20-Aug-20 09:12 35.897102 -106.011859 6 11086ft 175kts
20-Aug-20 09:13 35.945340 -106.004638 6 11092ft 175kts
20-Aug-20 09:14 35.993824 -105.997370 6 11097ft 176kts
20-Aug-20 09:15 36.042329 -105.990144 5 11100ft 176kts
20-Aug-20 09:16 36.090952 -105.983245 5 11101ft 176kts
20-Aug-20 09:17 36.139856 -105.975590 5 11049ft 174kts
20-Aug-20 09:18 36.185344 -105.968898 5 11043ft 152kts
20-Aug-20 09:19 36.224614 -105.963119 5 11048ft 135kts
20-Aug-20 09:20 36.261127 -105.957743 5 11051ft 130kts
20-Aug-20 09:21 36.291541 -105.942025 39 10962ft 113kts
20-Aug-20 09:22 36.316211 -105.914271 41 10273ft 121kts
20-Aug-20 09:23 36.340859 -105.885873 51 9799ft 117kts
20-Aug-20 09:24 36.359168 -105.852818 54 9311ft 116kts
20-Aug-20 09:25 36.376668 -105.820693 54 9053ft 102kts
20-Aug-20 09:26 36.392452 -105.791749 53 9070ft 108kts
20-Aug-20 09:27 36.408783 -105.762205 55 8721ft 106kts
20-Aug-20 09:28 36.426606 -105.730221 50 8002ft 108kts
20-Aug-20 09:29 36.443631 -105.699069 57 7434ft 103kts
20-Aug-20 09:30 36.457777 -105.673185 55 7096ft 56kts
20-Aug-20 09:31 36.457951 -105.673491 18 7096ft 4kts
20-Aug-20 09:32 36.459568 -105.672385 179 7096ft 0kts
20-Aug-20 09:33 36.459568 -105.672385 179 7096ft 0kts
20-Aug-20 09:34 36.459568 -105.672385 179 7096ft 0kts
20-Aug-20 09:35 36.459568 -105.672385 179 7096ft 0kts
20-Aug-20 09:36 36.459568 -105.672385 179 7096ft 0kts
20-Aug-20 09:37 36.459568 -105.672385 179 7096ft 0kts
20-Aug-20 09:38 36.459568 -105.672385 179 7096ft 0kts

Navigation Log

Ident Type
Flight plan parsing failed, navigation log unavailable